SCCY/GXQ METAR and TAF weather

Enter ICAO airport designator
Station Type Date Time Source
SCCY METAR 2019/06/18 12:00 UTC NOAA

SCCY 181200Z 03006KT 9999 BKN040 02/02 Q1016


Station Type Date Time Source
SCCY Decoded METAR 2019/06/18 12:00 UTC NOAA

Coyhaique, Chile (SCCY) 45-35S 072-07W
Jun 18, 2019 - 08:00 AM EDT / 2019.06.18 1200 UTC
Wind: from the NNE (030 degrees) at 7 MPH (6 KT):0
Visibility: greater than 7 mile(s):0
Sky conditions: mostly cloudy
Temperature: 35 F (2 C)
Windchill: 28 F (-2 C):1
Dew Point: 35 F (2 C)
Relative Humidity: 100%
Pressure (altimeter): 30.00 in. Hg (1016 hPa)
ob: SCCY 181200Z 03006KT 9999 BKN040 02/02 Q1016
cycle: 12

Station Type Date Time Source
SCCY TAF 2019/06/18 12:00 UTC NOAA

TAF SCCY 181052Z 1812/1900 01005KT CAVOK TN00/1812Z TX06/1818Z
BECMG 1813/1815 SCT035
BECMG 1822/1900 SCT015 BKN030

Example: see airport list